NCAR-RAP Real-Time Weather Data

Output produced by METARs form (08 May 2021  01:47 UTC)
found at http://weather.rap.ucar.edu/surface/
 
KCAK 080051Z 04006KT 10SM BKN060 BKN100 07/05 A2990 RMK AO2 RAE2353 SLP132 P0000 T00720050
KCAK 072351Z 33010KT 10SM -RA FEW036 BKN055 OVC075 08/05 A2992 RMK AO2 RAB13 SLP138 P0001 60001 T00780050 10139 20078 55000
KCAK 072251Z 28005KT 10SM FEW060 BKN095 BKN150 12/02 A2990 RMK AO2 SLP129 T01220017
KCAK 072151Z 31009KT 10SM SCT055 13/00 A2991 RMK AO2 SLP131 T01330000
KCAK 072051Z 33009KT 10SM SCT055 13/01 A2992 RMK AO2 SLP135 T01330006 58007
KCAK 071951Z 32013G20KT 10SM BKN055 13/01 A2993 RMK AO2 SLP139 T01330011
KCAK 071851Z 31011KT 280V350 10SM BKN039 12/03 A2994 RMK AO2 SLP143 T01220033
KCAK 071808Z 34011KT 10SM BKN032 11/02 A2994 RMK AO2 T01110022
KCAK 071751Z 30013G19KT 10SM BKN029 12/04 A2994 RMK AO2 SLP142 60004 T01220044 10122 20061 58000
KCAK 071651Z 36010KT 10SM BKN026 11/04 A2995 RMK AO2 SLP144 T01060044
KCAK 071624Z 33008G16KT 10SM SCT017 BKN028 11/05 A2995 RMK AO2 T01060050
KCAK 071551Z 35007G15KT 10SM BKN013 OVC025 10/06 A2995 RMK AO2 SLP144 BINOVC T01000061
KCAK 071515Z 36009KT 10SM BKN010 OVC021 08/05 A2995 RMK AO2 T00780050
KCAK 071451Z 34010KT 10SM BKN008 OVC016 07/04 A2994 RMK AO2 SLP144 DZB08E24RAB24E50 P0000 60004 T00670044
KCAK 071432Z 34009KT 310V020 8SM -RA BKN009 OVC018 07/05 A2994 RMK AO2 DZB08E24RAB24 P0000 T00720050
KCAK 071351Z 35006KT 8SM OVC011 07/04 A2993 RMK AO2 RAE48 SLP140 P0001 T00670044
KCAK 071334Z 01006KT 7SM -RA BKN009 OVC027 07/04 A2993 RMK AO2 P0001 T00720044
KCAK 071251Z 03006KT 7SM -RA FEW008 BKN028 OVC042 07/04 A2992 RMK AO2 SLP135 P0003 T00670044
KCAK 071223Z 02006KT 5SM -RA BR SCT006 OVC024 06/04 A2992 RMK AO2 P0003 T00610044
KCAK 071151Z COR 03006KT 3SM -RA BR BKN006 OVC022 06/04 A2992 RMK AO2 SLPNO P0009 60050 70050 T00610044 10072 20061 $
KCAK 071051Z COR 03006KT 3SM -RA BR BKN007 OVC028 06/04 A2990 RMK AO2 SFC VIS 4 SLPNO P0018 T00610039 $
KCAK 070951Z COR 08005KT 4SM -RA BR SCT010 OVC028 06/04 A2989 RMK AO2 SLPNO P0010 T00610039 $